createdAt,value
2022-09-07T00:01:41.736Z,4.60
2022-09-07T00:06:42.857Z,5.60
2022-09-07T00:11:44.135Z,4.90
2022-09-07T00:21:48.026Z,4.70
2022-09-07T00:26:49.595Z,3.40
2022-09-07T00:31:50.833Z,4.10
2022-09-07T00:36:52.492Z,3.80
2022-09-07T00:41:53.673Z,3.80
2022-09-07T00:46:54.885Z,5.00
2022-09-07T00:57:00.069Z,5.60
2022-09-07T01:02:01.779Z,4.70
2022-09-07T01:07:04.930Z,4.30
2022-09-07T01:12:06.595Z,3.20
2022-09-07T01:17:13.632Z,5.90
2022-09-07T01:22:36.670Z,4.00
2022-09-07T01:27:56.698Z,4.50
2022-09-07T01:33:19.470Z,3.70
2022-09-07T01:38:39.253Z,4.20
2022-09-07T01:43:59.707Z,5.00
2022-09-07T01:49:22.600Z,3.50
2022-09-07T01:54:41.332Z,3.40
2022-09-07T02:00:03.546Z,4.70
2022-09-07T02:05:13.871Z,4.20
2022-09-07T02:10:25.773Z,4.40
2022-09-07T02:15:38.286Z,4.60
2022-09-07T02:20:45.522Z,7.00
2022-09-07T02:25:54.400Z,8.60
2022-09-07T02:30:55.648Z,5.10
2022-09-07T02:41:00.592Z,3.20
2022-09-07T02:46:26.631Z,3.00
2022-09-07T02:51:39.904Z,4.90
2022-09-07T02:56:51.910Z,5.60
2022-09-07T03:02:02.145Z,5.30
2022-09-07T03:07:13.362Z,6.70
2022-09-07T03:12:14.830Z,5.40
2022-09-07T03:17:16.328Z,5.90
2022-09-07T03:22:17.425Z,4.90
2022-09-07T03:27:18.519Z,5.20
2022-09-07T03:32:19.642Z,5.40
2022-09-07T03:37:21.072Z,4.60
2022-09-07T03:52:25.078Z,5.90
2022-09-07T04:02:27.379Z,4.30
2022-09-07T04:12:29.590Z,5.30
2022-09-07T04:17:30.731Z,5.20
2022-09-07T04:22:31.905Z,6.30
2022-09-07T04:27:33.054Z,5.60
2022-09-07T04:32:34.561Z,7.20
2022-09-07T04:37:35.762Z,6.50
2022-09-07T04:42:37.907Z,4.30
2022-09-07T04:47:39.121Z,6.40
2022-09-07T04:52:40.254Z,3.60
2022-09-07T04:57:41.549Z,5.40
2022-09-07T05:02:42.887Z,8.90
2022-09-07T05:12:45.081Z,7.40
2022-09-07T05:22:47.685Z,5.40
2022-09-07T05:32:50.958Z,4.50
2022-09-07T05:37:52.080Z,6.70
2022-09-07T05:42:53.248Z,8.00
2022-09-07T05:47:55.018Z,4.30
2022-09-07T05:52:59.386Z,8.20
2022-09-07T05:58:00.728Z,4.10
2022-09-07T06:03:02.945Z,5.40
2022-09-07T06:08:04.780Z,6.60
2022-09-07T06:13:06.116Z,5.30
2022-09-07T06:18:07.654Z,5.60
2022-09-07T06:23:14.209Z,4.30
2022-09-07T06:28:15.781Z,3.10
2022-09-07T06:33:19.647Z,6.40
2022-09-07T06:38:23.676Z,4.20
2022-09-07T06:43:24.939Z,2.90
2022-09-07T06:48:27.418Z,4.30
2022-09-07T06:53:34.313Z,2.60
2022-09-07T06:58:39.193Z,4.30
2022-09-07T07:03:45.442Z,5.40
2022-09-07T07:08:47.171Z,3.80
2022-09-07T07:13:48.361Z,4.30
2022-09-07T07:18:51.634Z,6.20
2022-09-07T07:23:53.133Z,4.60
2022-09-07T07:29:03.871Z,5.50
2022-09-07T07:34:05.652Z,5.90
2022-09-07T07:39:07.617Z,4.80
2022-09-07T07:44:08.871Z,3.70
2022-09-07T07:49:09.991Z,12.20
2022-09-07T07:54:11.131Z,6.80
2022-09-07T07:59:15.610Z,10.40
2022-09-07T08:04:17.064Z,6.90
2022-09-07T08:09:18.205Z,8.00
2022-09-07T08:14:19.308Z,3.10
2022-09-07T08:19:20.449Z,5.50
2022-09-07T08:24:21.986Z,2.60
2022-09-07T08:29:23.333Z,12.80
2022-09-07T08:34:24.566Z,11.50
2022-09-07T08:39:25.954Z,6.50
2022-09-07T08:44:48.871Z,9.40
2022-09-07T08:49:58.288Z,10.40
2022-09-07T08:55:27.109Z,5.70
2022-09-07T09:00:29.208Z,8.60
2022-09-07T09:06:02.013Z,7.70
2022-09-07T09:11:06.836Z,7.10
2022-09-07T09:16:22.063Z,3.60
2022-09-07T09:21:23.613Z,4.60
2022-09-07T09:26:28.185Z,5.70
2022-09-07T09:31:35.388Z,4.40
2022-09-07T09:37:03.654Z,6.10
2022-09-07T09:42:11.128Z,4.10
2022-09-07T09:47:33.223Z,9.10
2022-09-07T09:52:43.940Z,7.90
2022-09-07T10:08:36.407Z,6.50
2022-09-07T10:13:54.086Z,5.00
2022-09-07T10:18:57.999Z,9.70
2022-09-07T10:24:13.577Z,6.90
2022-09-07T10:29:36.015Z,3.70
2022-09-07T10:35:16.411Z,6.10
2022-09-07T10:40:27.269Z,4.60
2022-09-07T10:45:34.229Z,5.10
2022-09-07T10:50:47.583Z,1.90
2022-09-07T10:56:26.229Z,3.90
2022-09-07T11:01:49.482Z,4.30
2022-09-07T11:06:56.926Z,3.70
2022-09-07T11:12:04.939Z,4.60
2022-09-07T11:17:14.921Z,6.30
2022-09-07T11:22:30.451Z,4.10
2022-09-07T11:27:40.124Z,4.80
2022-09-07T11:32:51.003Z,2.80
2022-09-07T11:37:58.705Z,2.90
2022-09-07T11:43:12.925Z,3.40
2022-09-07T11:48:20.279Z,4.90
2022-09-07T11:53:26.271Z,3.60
2022-09-07T11:59:00.553Z,2.10
2022-09-07T12:04:17.954Z,2.70
2022-09-07T12:09:44.133Z,5.40
2022-09-07T12:15:10.144Z,4.10
2022-09-07T12:20:14.631Z,4.60
2022-09-07T12:25:18.233Z,4.00
2022-09-07T12:30:19.340Z,2.30
2022-09-07T12:35:39.642Z,3.20
2022-09-07T12:41:00.566Z,4.10
2022-09-07T12:46:02.510Z,1.90
2022-09-07T13:02:21.956Z,2.70
2022-09-07T13:07:42.119Z,2.80
2022-09-07T13:12:55.238Z,2.20
2022-09-07T13:17:58.421Z,3.00
2022-09-07T13:23:20.978Z,4.10
2022-09-07T13:28:31.384Z,2.20
2022-09-07T13:33:35.269Z,3.50
2022-09-07T13:38:41.982Z,1.80
2022-09-07T13:43:48.622Z,1.90
2022-09-07T13:48:57.247Z,3.70
2022-09-07T13:54:23.333Z,3.60
2022-09-07T13:59:28.366Z,3.90
2022-09-07T14:04:49.591Z,3.10
2022-09-07T14:10:12.518Z,2.10
2022-09-07T14:15:20.444Z,3.70
2022-09-07T14:20:24.209Z,3.10
2022-09-07T14:25:25.435Z,3.30
2022-09-07T14:30:32.522Z,3.30
2022-09-07T14:35:37.633Z,2.10
2022-09-07T14:40:39.069Z,2.90
2022-09-07T14:45:41.643Z,1.70
2022-09-07T14:50:54.023Z,3.30
2022-09-07T14:56:10.632Z,2.30
2022-09-07T15:12:33.012Z,3.10
2022-09-07T15:17:43.125Z,3.30
2022-09-07T15:22:50.007Z,2.60
2022-09-07T15:27:51.373Z,3.80
2022-09-07T15:32:54.546Z,6.50
2022-09-07T15:38:04.987Z,4.70
2022-09-07T15:43:20.073Z,4.30
2022-09-07T15:48:28.502Z,5.20
2022-09-07T15:58:55.202Z,3.10
2022-09-07T16:03:58.583Z,5.30
2022-09-07T16:09:00.603Z,9.90
2022-09-07T16:14:03.454Z,4.20
2022-09-07T16:19:07.385Z,7.40
2022-09-07T16:24:09.535Z,4.70
2022-09-07T16:29:11.968Z,6.00
2022-09-07T16:34:18.855Z,5.20
2022-09-07T16:39:20.127Z,6.10
2022-09-07T16:44:22.690Z,5.20
2022-09-07T16:49:23.944Z,5.70
2022-09-07T16:54:25.769Z,7.40
2022-09-07T16:59:27.609Z,8.50
2022-09-07T17:04:29.376Z,9.20
2022-09-07T17:09:31.271Z,12.60
2022-09-07T17:14:34.070Z,11.10
2022-09-07T17:19:39.351Z,11.80
2022-09-07T17:24:41.131Z,10.30
2022-09-07T17:29:43.336Z,9.80
2022-09-07T17:34:44.711Z,17.50
2022-09-07T17:39:48.314Z,10.70
2022-09-07T17:44:53.712Z,9.40
2022-09-07T17:49:55.678Z,10.20
2022-09-07T17:55:00.580Z,9.40
2022-09-07T18:00:11.992Z,9.10
2022-09-07T18:05:16.019Z,12.50
2022-09-07T18:10:17.794Z,14.20
2022-09-07T18:15:22.773Z,20.70
2022-09-07T18:20:24.442Z,16.60
2022-09-07T18:25:27.921Z,21.60
2022-09-07T18:30:30.615Z,19.40
2022-09-07T18:35:31.792Z,18.50
2022-09-07T18:40:38.302Z,16.20
2022-09-07T18:45:39.753Z,16.00
2022-09-07T18:50:42.862Z,16.10
2022-09-07T18:55:44.116Z,14.00
2022-09-07T19:05:50.369Z,11.60
2022-09-07T19:10:52.248Z,8.40
2022-09-07T19:15:53.723Z,13.60
2022-09-07T19:20:54.995Z,13.40
2022-09-07T19:31:06.099Z,12.50
2022-09-07T19:36:07.844Z,8.40
2022-09-07T19:41:13.779Z,10.90
2022-09-07T19:46:22.710Z,7.90
2022-09-07T19:51:25.925Z,7.40
2022-09-07T19:56:27.196Z,8.70
2022-09-07T20:01:30.264Z,7.30
2022-09-07T20:06:33.505Z,7.70
2022-09-07T20:11:35.660Z,10.50
2022-09-07T20:16:38.600Z,6.80
2022-09-07T20:21:39.857Z,6.90
2022-09-07T20:26:41.075Z,5.70
2022-09-07T20:31:43.357Z,7.40
2022-09-07T20:36:44.686Z,6.10
2022-09-07T20:46:47.482Z,5.00
2022-09-07T20:51:48.972Z,8.30
2022-09-07T21:01:51.308Z,6.40
2022-09-07T21:06:52.753Z,7.00
2022-09-07T21:11:57.135Z,8.70
2022-09-07T21:16:58.430Z,12.60
2022-09-07T21:21:59.594Z,6.20
2022-09-07T21:27:00.732Z,8.10
2022-09-07T21:32:02.553Z,4.40
2022-09-07T21:37:06.817Z,6.20
2022-09-07T21:42:08.141Z,7.10
2022-09-07T21:47:09.811Z,5.30
2022-09-07T21:52:10.914Z,5.60
2022-09-07T21:57:12.080Z,8.80
2022-09-07T22:02:13.222Z,5.30
2022-09-07T22:07:14.671Z,7.80
2022-09-07T22:12:16.240Z,6.50
2022-09-07T22:17:17.370Z,9.50
2022-09-07T22:22:18.509Z,8.00
2022-09-07T22:27:19.767Z,10.20
2022-09-07T22:32:21.226Z,6.40
2022-09-07T22:37:22.386Z,9.60
2022-09-07T22:42:23.928Z,12.00
2022-09-07T22:47:25.307Z,7.90
2022-09-07T22:52:26.752Z,9.00
2022-09-07T22:57:27.884Z,7.70
2022-09-07T23:02:29.071Z,9.00
2022-09-07T23:07:30.191Z,6.10
2022-09-07T23:12:31.685Z,5.50
2022-09-07T23:17:33.209Z,6.40
2022-09-07T23:27:35.942Z,6.30
2022-09-07T23:32:37.081Z,4.30
2022-09-07T23:37:38.258Z,4.50
2022-09-07T23:47:40.896Z,4.60
2022-09-07T23:57:43.276Z,4.80
